Bloomington, NY

9:01 PM EST on February 08, 2016 (GMT -0500)
Saint Remy - Town of Esopus | | Change Station
CLOSE
Current Station
Personal Weather Station
Location: St Remy, NY
Elevation: 197 ft
Nearby Weather Stations

Elev 197 ft 41.89 °N, 74.02 °W | Updated 1 minute ago

Snow
Snow
26.6 °F
Feels Like 27 °F
N
0.0
Wind Variable Wind from North
Gusts 0.0 mph

Today
High -- | Low -- °F
--% Chance of Precip.
Yesterday
High -- | Low -- °F
Precip. -- in
Pressure 29.80 in
Visibility 1.8 miles
Clouds Few 1000 ft
Overcast 2700 ft
Windchill 27 °F
Dew Point 20 °F
Humidity 76%
Rainfall 0.00 in
Snow Depth Not available.
7:01 AM 5:19 PM
New Moon, 0% visible
METAR KPOU 090153Z AUTO 02007KT 1 3/4SM -SN FEW010 OVC027 M02/M06 A2980 RMK AO2 SLP090 P0001 T10221056
Pressure 29.80 in
Visibility 1.8 miles
Clouds Few 1000 ft
Overcast 2700 ft
Windchill 27 °F
Dew Point 20 °F
Humidity 76%
Rainfall 0.00 in
Snow Depth Not available.
7:01 AM 5:19 PM
New Moon, 0% visible
METAR KPOU 090153Z AUTO 02007KT 1 3/4SM -SN FEW010 OVC027 M02/M06 A2980 RMK AO2 SLP090 P0001 T10221056
Winter Storm will continue impacting eastern New England through Monday night with a combination of heavy snow and strong winds, resulting in dangerous travel conditions. In parts of southeast Massachusetts, blizzard conditions are possible along with tree damage, some power outages and coastal flooding. As of late Monday morning, winds had gusted up to 57 mph on Nantucket Island and coastal flooding was reported in several locations along the Massachusetts coast.

10-Day Weather Forecast

Almanac

Astronomy

Feb. 08, 2016 Rise Set
Actual Time
Civil Twilight
Nautical Twilight
Astronomical Twilight
Moon
Length of Visible Light
Length of Day
Tomorrow will be .
, % of the Moon is Illuminated

Today's Extremes

State Highs State Lows

Community

WunderPhotos

Upload Photos

1,891,527 photos uploaded!

WunderBlog® & News

Nearby

Air Quality

  Air Quality AQ Index Pollutant
Not available.

Snow Depth

Station Depth Elevation

Earthquake Activity

City Distance Mag. Time & Date
Minimum magnitude displayed is 2.5.

Coastal Water Temperatures

Place Temperature

Stations

Nearby Weather Stations

Station Location Temp. Windchill Dew Point Humidity Wind Precip. Elev Updated Type
                   

Watches & Warnings

There are currently no watches in effect.